createdAt,value
2019-03-27T00:01:57.624Z,14.65
2019-03-27T00:04:26.386Z,15.75
2019-03-27T00:06:57.421Z,15.78
2019-03-27T00:09:25.873Z,14.33
2019-03-27T00:11:54.707Z,16.42
2019-03-27T00:14:23.465Z,14.78
2019-03-27T00:16:52.283Z,12.78
2019-03-27T00:19:21.067Z,18.52
2019-03-27T00:21:49.537Z,14.00
2019-03-27T00:24:18.321Z,17.85
2019-03-27T00:26:50.081Z,16.15
2019-03-27T00:29:20.405Z,17.05
2019-03-27T00:31:48.873Z,17.15
2019-03-27T00:34:17.683Z,17.27
2019-03-27T00:36:46.497Z,16.87
2019-03-27T00:39:14.947Z,15.80
2019-03-27T00:41:43.407Z,17.12
2019-03-27T00:44:12.210Z,16.95
2019-03-27T00:46:40.939Z,14.00
2019-03-27T00:49:09.395Z,14.35
2019-03-27T00:51:37.876Z,13.05
2019-03-27T00:54:06.744Z,15.53
2019-03-27T00:56:35.577Z,13.45
2019-03-27T00:59:04.473Z,16.10
2019-03-27T01:01:32.923Z,16.32
2019-03-27T01:04:01.371Z,17.32
2019-03-27T01:06:30.293Z,18.23
2019-03-27T01:09:00.686Z,14.40
2019-03-27T01:11:29.465Z,18.73
2019-03-27T01:14:01.324Z,17.60
2019-03-27T01:16:30.103Z,16.50
2019-03-27T01:18:58.925Z,14.65
2019-03-27T01:21:28.251Z,17.73
2019-03-27T01:23:57.069Z,17.57
2019-03-27T01:26:25.821Z,18.70
2019-03-27T01:28:56.090Z,18.80
2019-03-27T01:31:25.071Z,17.75
2019-03-27T01:33:53.803Z,17.65
2019-03-27T01:36:22.546Z,16.87
2019-03-27T01:38:51.133Z,20.52
2019-03-27T01:41:19.581Z,17.95
2019-03-27T01:43:49.265Z,20.85
2019-03-27T01:46:17.751Z,17.42
2019-03-27T01:48:46.514Z,19.17
2019-03-27T01:51:14.959Z,18.00
2019-03-27T01:53:43.428Z,18.32
2019-03-27T01:56:14.008Z,15.88
2019-03-27T01:58:42.555Z,21.97
2019-03-27T02:01:11.164Z,20.82
2019-03-27T02:03:39.935Z,21.07
2019-03-27T02:06:08.733Z,20.68
2019-03-27T02:08:40.742Z,20.55
2019-03-27T02:11:10.406Z,21.27
2019-03-27T02:13:40.786Z,20.80
2019-03-27T02:16:11.954Z,18.30
2019-03-27T02:18:44.322Z,20.50
2019-03-27T02:21:13.208Z,20.80
2019-03-27T02:23:42.100Z,17.50
2019-03-27T02:26:10.594Z,19.25
2019-03-27T02:28:39.390Z,18.07
2019-03-27T02:31:09.512Z,15.78
2019-03-27T02:33:38.039Z,22.48
2019-03-27T02:36:06.493Z,17.73
2019-03-27T02:38:34.975Z,18.10
2019-03-27T02:41:03.941Z,18.92
2019-03-27T02:43:32.748Z,18.80
2019-03-27T02:46:01.275Z,24.05
2019-03-27T02:48:29.772Z,23.27
2019-03-27T02:50:59.818Z,22.30
2019-03-27T02:53:28.311Z,20.72
2019-03-27T02:55:57.087Z,22.85
2019-03-27T02:58:25.858Z,21.85
2019-03-27T03:00:54.697Z,21.95
2019-03-27T03:03:25.086Z,19.65
2019-03-27T03:05:53.867Z,20.60
2019-03-27T03:08:22.748Z,23.77
2019-03-27T03:10:51.258Z,21.60
2019-03-27T03:13:19.996Z,21.90
2019-03-27T03:15:48.557Z,20.60
2019-03-27T03:18:17.390Z,22.67
2019-03-27T03:20:47.461Z,23.70
2019-03-27T03:23:16.270Z,16.97
2019-03-27T03:25:44.737Z,23.92
2019-03-27T03:28:14.298Z,22.70
2019-03-27T03:30:43.060Z,21.62
2019-03-27T03:33:11.969Z,21.40
2019-03-27T03:35:43.044Z,24.27
2019-03-27T03:38:13.190Z,21.87
2019-03-27T03:40:41.992Z,18.30
2019-03-27T03:43:10.571Z,23.25
2019-03-27T03:45:39.377Z,20.05
2019-03-27T03:48:08.262Z,21.82
2019-03-27T03:50:43.882Z,18.77
2019-03-27T03:53:14.002Z,22.42
2019-03-27T03:55:42.924Z,18.30
2019-03-27T03:58:13.471Z,19.73
2019-03-27T04:00:44.443Z,21.70
2019-03-27T04:03:14.298Z,21.93
2019-03-27T04:05:43.423Z,22.37
2019-03-27T04:08:13.236Z,21.75
2019-03-27T04:10:52.007Z,20.23
2019-03-27T04:13:20.468Z,23.67
2019-03-27T04:15:50.532Z,20.97
2019-03-27T04:18:22.952Z,21.62
2019-03-27T04:20:51.794Z,21.23
2019-03-27T04:23:20.304Z,20.97
2019-03-27T04:26:08.757Z,21.02
2019-03-27T04:28:19.233Z,19.80
2019-03-27T04:30:47.941Z,22.10
2019-03-27T04:33:17.648Z,21.50
2019-03-27T04:35:47.151Z,15.72
2019-03-27T04:38:16.057Z,21.85
2019-03-27T04:40:46.259Z,16.77
2019-03-27T04:43:15.159Z,21.82
2019-03-27T04:45:45.489Z,19.95
2019-03-27T04:48:14.385Z,21.10
2019-03-27T04:50:43.173Z,21.93
2019-03-27T04:53:11.979Z,20.40
2019-03-27T04:55:40.725Z,20.37
2019-03-27T04:58:09.585Z,22.62
2019-03-27T05:00:38.412Z,22.05
2019-03-27T05:03:09.450Z,20.40
2019-03-27T05:05:39.121Z,19.73
2019-03-27T05:08:07.839Z,21.27
2019-03-27T05:10:36.407Z,22.48
2019-03-27T05:13:04.936Z,19.52
2019-03-27T05:15:33.725Z,20.65
2019-03-27T05:18:02.507Z,22.30
2019-03-27T05:20:31.098Z,20.60
2019-03-27T05:22:59.555Z,21.87
2019-03-27T05:25:28.036Z,21.30
2019-03-27T05:27:56.910Z,20.08
2019-03-27T05:30:27.859Z,20.48
2019-03-27T05:32:56.872Z,19.70
2019-03-27T05:35:26.317Z,19.42
2019-03-27T05:37:55.519Z,22.32
2019-03-27T05:40:24.429Z,21.52
2019-03-27T05:43:00.518Z,20.08
2019-03-27T05:45:24.268Z,22.70
2019-03-27T05:47:59.585Z,23.12
2019-03-27T05:50:24.845Z,24.55
2019-03-27T05:52:56.709Z,20.95
2019-03-27T05:55:26.575Z,22.93
2019-03-27T05:57:55.457Z,23.15
2019-03-27T06:00:24.285Z,20.32
2019-03-27T06:02:52.790Z,21.17
2019-03-27T06:05:21.800Z,21.97
2019-03-27T06:07:50.510Z,22.13
2019-03-27T06:10:19.440Z,20.43
2019-03-27T06:12:48.143Z,21.52
2019-03-27T06:15:18.122Z,21.65
2019-03-27T06:17:46.894Z,21.40
2019-03-27T06:20:16.789Z,22.15
2019-03-27T06:22:45.255Z,20.43
2019-03-27T06:25:15.606Z,21.75
2019-03-27T06:27:45.859Z,21.07
2019-03-27T06:30:14.606Z,20.92
2019-03-27T06:32:43.890Z,21.75
2019-03-27T06:35:13.648Z,21.37
2019-03-27T06:37:43.334Z,22.00
2019-03-27T06:40:12.218Z,21.97
2019-03-27T06:42:42.068Z,21.93
2019-03-27T06:45:11.548Z,20.40
2019-03-27T06:47:41.040Z,20.15
2019-03-27T06:50:09.620Z,20.62
2019-03-27T06:52:40.130Z,20.92
2019-03-27T06:55:08.923Z,21.85
2019-03-27T06:57:41.768Z,21.62
2019-03-27T07:00:12.007Z,23.75
2019-03-27T07:02:41.098Z,23.25
2019-03-27T07:05:11.319Z,23.15
2019-03-27T07:07:39.879Z,21.77
2019-03-27T07:10:11.348Z,20.90
2019-03-27T07:12:41.600Z,22.98
2019-03-27T07:15:10.246Z,21.93
2019-03-27T07:17:39.052Z,21.73
2019-03-27T07:20:09.010Z,21.57
2019-03-27T07:22:37.534Z,20.37
2019-03-27T07:25:07.452Z,18.92
2019-03-27T07:27:40.367Z,19.65
2019-03-27T07:30:09.772Z,17.50
2019-03-27T07:32:40.147Z,19.62
2019-03-27T07:35:09.070Z,17.87
2019-03-27T07:37:37.536Z,19.00
2019-03-27T07:40:07.992Z,18.07
2019-03-27T07:42:36.498Z,16.57
2019-03-27T07:45:07.550Z,17.60
2019-03-27T07:47:38.531Z,17.30
2019-03-27T07:50:08.876Z,16.60
2019-03-27T07:52:37.338Z,17.30
2019-03-27T07:55:18.814Z,13.88
2019-03-27T07:57:38.159Z,11.40
2019-03-27T08:00:16.334Z,11.00
2019-03-27T08:02:44.885Z,11.20
2019-03-27T08:05:16.976Z,10.10
2019-03-27T08:07:46.893Z,10.08
2019-03-27T08:10:15.880Z,10.75
2019-03-27T08:12:44.327Z,9.40
2019-03-27T08:15:15.074Z,8.63
2019-03-27T08:17:43.831Z,9.65
2019-03-27T08:20:14.503Z,10.38
2019-03-27T08:22:43.242Z,9.63
2019-03-27T08:25:12.790Z,8.63
2019-03-27T08:27:41.377Z,8.85
2019-03-27T08:30:17.438Z,8.20
2019-03-27T08:32:46.957Z,9.25
2019-03-27T08:35:15.679Z,8.10
2019-03-27T08:37:44.526Z,7.55
2019-03-27T08:40:13.824Z,8.90
2019-03-27T08:42:44.690Z,7.47
2019-03-27T08:45:14.851Z,8.58
2019-03-27T08:47:45.932Z,6.47
2019-03-27T08:50:17.348Z,7.47
2019-03-27T08:52:45.886Z,7.62
2019-03-27T08:55:16.124Z,7.42
2019-03-27T08:57:44.824Z,6.95
2019-03-27T09:00:13.975Z,7.20
2019-03-27T09:02:42.825Z,5.87
2019-03-27T09:05:12.144Z,6.58
2019-03-27T09:07:42.034Z,7.05
2019-03-27T09:10:11.345Z,7.17
2019-03-27T09:12:41.359Z,8.30
2019-03-27T09:15:10.331Z,7.50
2019-03-27T09:17:39.207Z,8.63
2019-03-27T09:20:10.070Z,7.05
2019-03-27T09:22:38.978Z,6.78
2019-03-27T09:25:08.565Z,6.00
2019-03-27T09:27:37.350Z,4.80
2019-03-27T09:30:12.054Z,5.20
2019-03-27T09:32:42.753Z,5.37
2019-03-27T09:35:11.859Z,4.83
2019-03-27T09:37:40.596Z,5.42
2019-03-27T09:40:09.889Z,3.83
2019-03-27T09:42:38.766Z,3.37
2019-03-27T09:45:10.955Z,5.00
2019-03-27T09:47:39.840Z,5.87
2019-03-27T09:50:09.004Z,6.10
2019-03-27T09:52:37.867Z,5.70
2019-03-27T09:55:06.792Z,5.25
2019-03-27T09:57:35.862Z,5.08
2019-03-27T10:00:07.064Z,5.33
2019-03-27T10:02:35.561Z,4.87
2019-03-27T10:05:06.164Z,5.87
2019-03-27T10:07:34.693Z,5.87
2019-03-27T10:10:03.233Z,4.78
2019-03-27T10:12:31.991Z,5.45
2019-03-27T10:15:00.902Z,4.58
2019-03-27T10:17:29.841Z,5.97
2019-03-27T10:20:03.809Z,5.70
2019-03-27T10:22:28.824Z,6.42
2019-03-27T10:24:57.307Z,5.42
2019-03-27T10:27:26.130Z,6.30
2019-03-27T10:29:54.590Z,6.45
2019-03-27T10:32:23.422Z,6.58
2019-03-27T10:34:52.117Z,5.30
2019-03-27T10:37:20.564Z,3.67
2019-03-27T10:39:50.577Z,6.00
2019-03-27T10:42:21.110Z,3.90
2019-03-27T10:44:49.850Z,4.53
2019-03-27T10:47:18.380Z,3.80
2019-03-27T10:49:46.877Z,3.83
2019-03-27T10:52:17.126Z,3.55
2019-03-27T10:54:45.664Z,3.47
2019-03-27T10:57:14.364Z,3.80
2019-03-27T10:59:43.066Z,3.75
2019-03-27T11:02:11.820Z,3.77
2019-03-27T11:04:40.602Z,3.27
2019-03-27T11:07:09.058Z,3.50
2019-03-27T11:09:37.602Z,4.35
2019-03-27T11:12:07.308Z,3.40
2019-03-27T11:14:38.183Z,3.12
2019-03-27T11:17:06.302Z,3.77
2019-03-27T11:19:34.817Z,2.95
2019-03-27T11:22:03.411Z,3.40
2019-03-27T11:24:32.443Z,3.15
2019-03-27T11:27:01.381Z,3.27
2019-03-27T11:29:30.250Z,3.40
2019-03-27T11:31:58.794Z,3.35
2019-03-27T11:34:27.327Z,3.08
2019-03-27T11:36:55.779Z,2.72
2019-03-27T11:39:24.833Z,2.90
2019-03-27T11:41:53.852Z,2.08
2019-03-27T11:44:22.312Z,1.80
2019-03-27T11:46:51.110Z,2.10
2019-03-27T11:49:19.916Z,2.10
2019-03-27T11:51:48.419Z,2.33
2019-03-27T11:54:16.982Z,2.55
2019-03-27T11:56:45.874Z,2.95
2019-03-27T11:59:14.661Z,2.67
2019-03-27T12:01:43.949Z,2.65
2019-03-27T12:04:12.863Z,3.20
2019-03-27T12:06:41.393Z,2.90
2019-03-27T12:09:10.207Z,4.05
2019-03-27T12:11:38.651Z,3.45
2019-03-27T12:14:07.445Z,2.98
2019-03-27T12:16:36.988Z,3.58
2019-03-27T12:19:05.754Z,3.87
2019-03-27T12:21:34.565Z,3.80
2019-03-27T12:24:03.367Z,3.40
2019-03-27T12:26:31.884Z,3.70
2019-03-27T12:29:00.330Z,4.00
2019-03-27T12:31:28.881Z,3.62
2019-03-27T12:33:57.667Z,4.12
2019-03-27T12:36:26.450Z,3.30
2019-03-27T12:38:55.255Z,3.65
2019-03-27T12:41:26.612Z,4.00
2019-03-27T12:43:55.171Z,3.90
2019-03-27T12:46:37.309Z,4.17
2019-03-27T12:49:06.385Z,3.08
2019-03-27T12:51:35.515Z,3.10
2019-03-27T12:54:04.125Z,3.67
2019-03-27T12:56:32.914Z,3.40
2019-03-27T12:59:01.362Z,3.55
2019-03-27T13:01:29.809Z,2.80
2019-03-27T13:03:58.287Z,3.20
2019-03-27T13:06:26.829Z,3.05
2019-03-27T13:08:55.327Z,2.90
2019-03-27T13:11:23.924Z,3.02
2019-03-27T13:13:52.697Z,2.65
2019-03-27T13:16:21.144Z,3.02
2019-03-27T13:18:52.227Z,2.95
2019-03-27T13:21:26.742Z,2.47
2019-03-27T13:23:51.445Z,2.77
2019-03-27T13:26:19.967Z,2.95
2019-03-27T13:28:49.405Z,2.72
2019-03-27T13:31:20.809Z,3.22
2019-03-27T13:33:50.529Z,2.90
2019-03-27T13:36:19.481Z,2.60
2019-03-27T13:38:49.885Z,2.40
2019-03-27T13:41:19.950Z,3.45
2019-03-27T13:43:48.403Z,2.65
2019-03-27T13:46:18.749Z,3.33
2019-03-27T13:48:47.205Z,3.12
2019-03-27T13:51:16.023Z,2.50
2019-03-27T13:53:45.847Z,2.83
2019-03-27T13:56:14.712Z,2.58
2019-03-27T13:58:43.543Z,3.27
2019-03-27T14:01:13.061Z,3.10
2019-03-27T14:03:42.514Z,3.05
2019-03-27T14:06:11.065Z,3.12
2019-03-27T14:08:39.814Z,3.08
2019-03-27T14:11:08.753Z,3.58
2019-03-27T14:13:37.797Z,3.08
2019-03-27T14:16:07.030Z,3.22
2019-03-27T14:18:35.860Z,3.15
2019-03-27T14:21:04.421Z,4.10
2019-03-27T14:23:33.300Z,3.40
2019-03-27T14:26:01.828Z,3.55
2019-03-27T14:28:30.655Z,3.22
2019-03-27T14:30:59.252Z,3.30
2019-03-27T14:33:28.029Z,3.35
2019-03-27T14:35:56.563Z,3.12
2019-03-27T14:38:25.170Z,2.70
2019-03-27T14:40:56.031Z,2.92
2019-03-27T14:43:27.207Z,2.77
2019-03-27T14:45:55.859Z,2.25
2019-03-27T14:48:24.547Z,2.80
2019-03-27T14:50:53.035Z,2.80
2019-03-27T14:53:21.571Z,3.52
2019-03-27T14:55:51.853Z,2.90
2019-03-27T14:58:20.417Z,2.87
2019-03-27T15:00:49.191Z,4.70
2019-03-27T15:03:17.995Z,5.08
2019-03-27T15:05:46.527Z,3.30
2019-03-27T15:08:16.793Z,3.65
2019-03-27T15:10:45.838Z,3.37
2019-03-27T15:13:15.421Z,3.72
2019-03-27T15:15:44.372Z,3.45
2019-03-27T15:18:12.999Z,3.20
2019-03-27T15:20:43.212Z,3.80
2019-03-27T15:23:11.709Z,3.47
2019-03-27T15:25:40.242Z,3.47
2019-03-27T15:28:09.947Z,5.10
2019-03-27T15:30:38.925Z,3.72
2019-03-27T15:33:07.506Z,3.47
2019-03-27T15:35:36.514Z,4.33
2019-03-27T15:38:04.993Z,3.70
2019-03-27T15:40:44.842Z,3.45
2019-03-27T15:43:15.169Z,4.10
2019-03-27T15:45:45.070Z,3.98
2019-03-27T15:48:13.635Z,4.30
2019-03-27T15:50:55.266Z,3.87
2019-03-27T15:53:13.708Z,3.70
2019-03-27T15:55:42.586Z,4.42
2019-03-27T15:58:11.079Z,4.15
2019-03-27T16:00:40.452Z,3.40
2019-03-27T16:03:09.336Z,3.80
2019-03-27T16:05:39.222Z,4.03
2019-03-27T16:08:08.784Z,3.92
2019-03-27T16:10:37.337Z,3.87
2019-03-27T16:13:05.811Z,4.80
2019-03-27T16:15:37.105Z,5.03
2019-03-27T16:18:04.989Z,5.33
2019-03-27T16:20:33.765Z,4.15
2019-03-27T16:23:02.339Z,5.00
2019-03-27T16:25:30.867Z,5.12
2019-03-27T16:27:59.389Z,5.95
2019-03-27T16:30:28.882Z,6.45
2019-03-27T16:32:57.662Z,4.87
2019-03-27T16:35:26.534Z,5.20
2019-03-27T16:37:57.364Z,7.20
2019-03-27T16:40:46.577Z,5.80
2019-03-27T16:43:15.184Z,5.90
2019-03-27T16:45:43.712Z,5.60
2019-03-27T16:48:12.313Z,6.10
2019-03-27T16:50:42.165Z,5.95
2019-03-27T16:53:11.029Z,6.03
2019-03-27T16:55:40.436Z,6.78
2019-03-27T16:58:09.062Z,5.95
2019-03-27T17:00:37.966Z,6.78
2019-03-27T17:03:06.564Z,6.97
2019-03-27T17:05:35.072Z,6.20
2019-03-27T17:08:03.552Z,7.15
2019-03-27T17:10:32.112Z,7.22
2019-03-27T17:13:00.868Z,7.67
2019-03-27T17:15:29.716Z,7.12
2019-03-27T17:17:58.172Z,7.08
2019-03-27T17:20:27.361Z,6.97
2019-03-27T17:22:56.136Z,6.85
2019-03-27T17:25:24.688Z,6.90
2019-03-27T17:27:55.893Z,7.05
2019-03-27T17:30:24.594Z,7.58
2019-03-27T17:32:53.434Z,8.23
2019-03-27T17:35:22.216Z,6.50
2019-03-27T17:37:50.707Z,7.37
2019-03-27T17:40:20.014Z,6.92
2019-03-27T17:42:49.085Z,7.12
2019-03-27T17:45:19.011Z,6.67
2019-03-27T17:47:47.817Z,7.20
2019-03-27T17:50:17.022Z,6.92
2019-03-27T17:52:45.548Z,7.47
2019-03-27T17:55:14.672Z,7.30
2019-03-27T17:57:43.524Z,8.08
2019-03-27T18:00:15.201Z,7.97
2019-03-27T18:02:43.672Z,7.47
2019-03-27T18:05:12.300Z,8.28
2019-03-27T18:07:41.153Z,7.70
2019-03-27T18:10:11.593Z,7.92
2019-03-27T18:12:42.828Z,8.78
2019-03-27T18:15:11.420Z,8.43
2019-03-27T18:17:46.503Z,9.00
2019-03-27T18:20:14.775Z,8.47
2019-03-27T18:22:43.293Z,9.30
2019-03-27T18:25:11.820Z,8.58
2019-03-27T18:27:40.571Z,9.70
2019-03-27T18:30:11.815Z,8.85
2019-03-27T18:32:41.931Z,9.93
2019-03-27T18:35:12.852Z,11.80
2019-03-27T18:37:43.234Z,10.85
2019-03-27T18:40:12.118Z,9.68
2019-03-27T18:42:41.597Z,11.22
2019-03-27T18:45:18.990Z,10.35
2019-03-27T18:47:49.087Z,9.60
2019-03-27T18:50:17.977Z,9.95
2019-03-27T18:52:46.864Z,8.08
2019-03-27T18:55:26.383Z,8.65
2019-03-27T18:57:59.548Z,9.68
2019-03-27T19:00:19.546Z,10.55
2019-03-27T19:02:48.919Z,10.28
2019-03-27T19:05:17.449Z,9.85
2019-03-27T19:07:47.454Z,8.70
2019-03-27T19:10:16.124Z,8.18
2019-03-27T19:12:47.941Z,8.33
2019-03-27T19:15:16.541Z,8.40
2019-03-27T19:17:45.024Z,7.03
2019-03-27T19:20:13.699Z,8.15
2019-03-27T19:22:42.449Z,7.45
2019-03-27T19:25:11.401Z,8.03
2019-03-27T19:27:40.239Z,7.72
2019-03-27T19:30:11.589Z,7.85
2019-03-27T19:32:40.382Z,10.60
2019-03-27T19:35:09.362Z,8.80
2019-03-27T19:37:37.871Z,9.55
2019-03-27T19:40:07.601Z,8.53
2019-03-27T19:42:36.124Z,8.63
2019-03-27T19:45:05.522Z,8.70
2019-03-27T19:47:34.101Z,8.10
2019-03-27T19:50:02.666Z,7.37
2019-03-27T19:52:31.514Z,7.25
2019-03-27T19:55:00.527Z,6.95
2019-03-27T19:57:29.310Z,8.23
2019-03-27T19:59:59.675Z,8.10
2019-03-27T20:02:28.129Z,7.58
2019-03-27T20:04:56.573Z,7.70
2019-03-27T20:07:35.305Z,7.22
2019-03-27T20:09:56.887Z,8.43
2019-03-27T20:12:30.644Z,6.78
2019-03-27T20:15:11.268Z,7.35
2019-03-27T20:17:29.547Z,7.80
2019-03-27T20:20:00.899Z,6.78
2019-03-27T20:22:29.415Z,5.95
2019-03-27T20:24:58.123Z,6.62
2019-03-27T20:27:26.687Z,7.40
2019-03-27T20:29:55.704Z,6.47
2019-03-27T20:32:25.069Z,6.20
2019-03-27T20:34:53.639Z,6.10
2019-03-27T20:37:22.140Z,5.95
2019-03-27T20:39:50.694Z,6.17
2019-03-27T20:42:20.113Z,5.65
2019-03-27T20:44:48.841Z,6.67
2019-03-27T20:47:17.304Z,6.85
2019-03-27T20:49:46.034Z,6.97
2019-03-27T20:52:14.566Z,6.37
2019-03-27T20:54:54.362Z,6.80
2019-03-27T20:57:16.003Z,7.05
2019-03-27T20:59:44.766Z,6.65
2019-03-27T21:02:13.551Z,6.65
2019-03-27T21:04:42.040Z,6.97
2019-03-27T21:07:10.592Z,7.33
2019-03-27T21:09:39.362Z,7.28
2019-03-27T21:12:08.193Z,7.75
2019-03-27T21:14:36.718Z,7.45
2019-03-27T21:17:05.508Z,8.60
2019-03-27T21:19:36.134Z,9.20
2019-03-27T21:22:04.412Z,8.53
2019-03-27T21:24:32.946Z,8.63
2019-03-27T21:27:01.562Z,8.28
2019-03-27T21:29:30.500Z,9.68
2019-03-27T21:31:58.975Z,9.20
2019-03-27T21:34:28.206Z,10.00
2019-03-27T21:36:57.158Z,11.03
2019-03-27T21:39:26.206Z,9.83
2019-03-27T21:41:55.194Z,10.68
2019-03-27T21:44:24.062Z,11.20
2019-03-27T21:46:53.709Z,9.88
2019-03-27T21:49:24.608Z,8.83
2019-03-27T21:51:53.241Z,11.05
2019-03-27T21:54:25.647Z,10.30
2019-03-27T21:56:55.278Z,8.50
2019-03-27T21:59:25.534Z,10.15
2019-03-27T22:02:00.338Z,11.30
2019-03-27T22:04:28.951Z,10.15
2019-03-27T22:06:57.915Z,11.63
2019-03-27T22:09:26.979Z,11.80
2019-03-27T22:11:56.921Z,10.90
2019-03-27T22:14:25.871Z,8.43
2019-03-27T22:16:56.056Z,12.33
2019-03-27T22:19:29.793Z,10.95
2019-03-27T22:21:59.895Z,9.75
2019-03-27T22:24:31.035Z,11.53
2019-03-27T22:27:00.903Z,10.68
2019-03-27T22:29:29.467Z,9.80
2019-03-27T22:31:59.808Z,13.38
2019-03-27T22:34:28.654Z,12.35
2019-03-27T22:36:58.391Z,12.65
2019-03-27T22:39:27.248Z,11.73
2019-03-27T22:41:56.141Z,11.50
2019-03-27T22:44:26.897Z,13.30
2019-03-27T22:46:57.145Z,13.20
2019-03-27T22:49:25.974Z,11.22
2019-03-27T22:51:58.382Z,12.90
2019-03-27T22:54:27.322Z,12.95
2019-03-27T22:56:55.882Z,13.45
2019-03-27T22:59:25.898Z,14.35
2019-03-27T23:01:54.868Z,15.43
2019-03-27T23:04:23.958Z,15.23
2019-03-27T23:06:54.150Z,13.38
2019-03-27T23:09:23.034Z,13.60
2019-03-27T23:11:51.862Z,13.72
2019-03-27T23:14:20.404Z,12.98
2019-03-27T23:16:50.282Z,13.83
2019-03-27T23:19:18.830Z,14.35
2019-03-27T23:21:48.934Z,13.08
2019-03-27T23:24:17.538Z,13.08
2019-03-27T23:26:46.167Z,12.75
2019-03-27T23:29:15.486Z,13.03
2019-03-27T23:31:44.082Z,14.87
2019-03-27T23:34:13.492Z,13.72
2019-03-27T23:36:42.047Z,14.33
2019-03-27T23:39:11.951Z,15.28
2019-03-27T23:41:41.467Z,15.65
2019-03-27T23:44:10.292Z,13.72
2019-03-27T23:46:39.161Z,13.58
2019-03-27T23:49:09.392Z,14.63
2019-03-27T23:51:41.154Z,13.15
2019-03-27T23:54:10.328Z,13.90
2019-03-27T23:56:38.886Z,13.10
2019-03-27T23:59:07.727Z,13.32
